Time;durP1;ratioP1;P1;durP2;ratioP2;P2;SDS_P1;SDS_P2;PMS_P1;PMS_P2;Temp;Humidity;BMP_temperature;BMP_pressure;BME280_temperature;BME280_humidity;BME280_pressure;Samples;Min_cycle;Max_cycle;Signal;HPM_P1;HPM_P2
2023/10/05 00:01:10;;;;;;;6.68;2.10;;;;;;;10.24;66.96;99326.28;5033006;28;20065;-60
2023/10/05 00:03:39;;;;;;;10.23;2.05;;;;;;;10.20;67.28;99324.88;5047781;28;20043;-59
2023/10/05 00:06:16;;;;;;;6.28;1.90;;;;;;;10.24;67.37;99328.97;5034069;28;20055;-61
2023/10/05 00:08:49;;;;;;;4.93;1.98;;;;;;;10.24;67.59;99339.66;5033121;28;20045;-61
2023/10/05 00:11:31;;;;;;;5.30;1.63;;;;;;;10.09;67.58;99330.31;5033093;28;20428;-61
2023/10/05 00:14:04;;;;;;;8.15;2.08;;;;;;;10.13;67.66;99343.31;5032597;28;20032;-61
2023/10/05 00:16:38;;;;;;;5.68;2.13;;;;;;;10.10;67.99;99346.22;5034127;28;20034;-59
2023/10/05 00:19:11;;;;;;;5.00;1.70;;;;;;;10.06;68.02;99339.44;5032633;28;20041;-61
2023/10/05 00:21:51;;;;;;;4.80;1.58;;;;;;;9.95;68.06;99324.31;5032776;28;20040;-61
2023/10/05 00:24:23;;;;;;;6.22;1.85;;;;;;;10.00;68.16;99348.00;5033064;28;20033;-60
2023/10/05 00:26:49;;;;;;;6.93;1.63;;;;;;;9.78;68.45;99307.06;5032133;28;20361;-61
2023/10/05 00:29:21;;;;;;;4.63;1.70;;;;;;;9.74;68.44;99306.47;5032493;28;20076;-60
2023/10/05 00:31:49;;;;;;;5.07;1.60;;;;;;;9.92;69.17;99340.63;5046976;28;20036;-62
2023/10/05 00:36:50;;;;;;;6.05;2.17;;;;;;;9.87;69.02;99343.69;5052971;28;20039;-60
2023/10/05 00:39:19;;;;;;;6.35;1.75;;;;;;;9.89;69.35;99344.44;5047602;28;20372;-60
2023/10/05 00:44:34;;;;;;;4.75;1.50;;;;;;;9.82;69.25;99345.09;5032647;28;20026;-60
2023/10/05 00:47:01;;;;;;;6.28;1.80;;;;;;;9.79;69.54;99340.84;5032633;28;20025;-60
2023/10/05 00:49:37;;;;;;;3.90;2.00;;;;;;;9.82;69.65;99350.44;5032195;28;20034;-59
2023/10/05 00:52:16;;;;;;;5.32;1.95;;;;;;;9.76;69.58;99354.47;5032683;28;20448;-62
2023/10/05 00:54:45;;;;;;;5.50;2.05;;;;;;;9.78;69.76;99357.84;5032266;28;20171;-58
2023/10/05 00:57:15;;;;;;;3.15;1.58;;;;;;;9.76;69.79;99351.78;5032247;28;20866;-59
2023/10/05 00:59:44;;;;;;;7.95;1.80;;;;;;;9.70;69.82;99352.31;5033408;28;20850;-60
2023/10/05 01:02:15;;;;;;;11.00;1.88;;;;;;;9.71;70.20;99354.84;5050693;28;20345;-59
2023/10/05 01:07:19;;;;;;;5.43;1.65;;;;;;;9.68;70.45;99359.63;5050295;28;20029;-61
2023/10/05 01:12:20;;;;;;;5.07;1.63;;;;;;;9.66;70.45;99354.41;5050377;28;20491;-61
2023/10/05 01:14:52;;;;;;;4.77;1.80;;;;;;;9.63;70.75;99352.81;5050440;28;20049;-62
2023/10/05 01:17:22;;;;;;;3.53;1.50;;;;;;;9.65;70.85;99357.22;5050836;28;20418;-61
2023/10/05 01:19:55;;;;;;;5.75;1.70;;;;;;;9.63;70.67;99362.69;5051516;28;20324;-60
2023/10/05 01:22:21;;;;;;;8.80;1.92;;;;;;;9.60;71.01;99365.63;5050829;28;20402;-58
2023/10/05 01:24:48;;;;;;;6.13;1.85;;;;;;;9.58;70.79;99357.72;5052321;28;20025;-60
2023/10/05 01:27:15;;;;;;;4.75;1.83;;;;;;;9.53;71.02;99356.44;5047126;28;20045;-60
2023/10/05 01:29:40;;;;;;;5.30;2.05;;;;;;;9.33;71.24;99325.03;5032098;28;20029;-59
2023/10/05 01:32:07;;;;;;;6.90;2.05;;;;;;;9.46;71.12;99350.75;5032006;28;20035;-59
2023/10/05 01:34:33;;;;;;;5.35;1.77;;;;;;;9.52;71.39;99376.94;5032150;28;20030;-59
2023/10/05 01:36:58;;;;;;;7.07;2.10;;;;;;;9.51;71.76;99369.91;5032009;28;20052;-61
2023/10/05 01:39:25;;;;;;;4.90;1.85;;;;;;;9.41;72.02;99342.28;5030425;28;20437;-63
2023/10/05 01:41:51;;;;;;;4.50;1.92;;;;;;;9.55;71.49;99370.50;5037094;28;20098;-59
2023/10/05 01:44:17;;;;;;;6.55;2.08;;;;;;;9.57;71.40;99373.91;5043889;28;20037;-61
2023/10/05 01:46:43;;;;;;;6.10;2.10;;;;;;;9.55;71.45;99368.66;5053712;28;20083;-59
2023/10/05 01:49:08;;;;;;;3.35;1.95;;;;;;;9.55;71.60;99371.34;5054383;28;20036;-61
2023/10/05 01:51:34;;;;;;;4.13;1.90;;;;;;;9.52;71.83;99368.91;5038945;28;20029;-60
2023/10/05 01:54:11;;;;;;;7.35;2.08;;;;;;;9.50;71.80;99367.34;5035490;28;20037;-60
2023/10/05 01:56:39;;;;;;;7.50;2.08;;;;;;;9.24;71.65;99324.94;5035544;28;20034;-61
2023/10/05 01:59:06;;;;;;;4.50;2.17;;;;;;;9.52;72.04;99376.06;5035449;28;20037;-60
2023/10/05 02:01:36;;;;;;;5.68;2.53;;;;;;;9.49;71.94;99377.19;5044566;28;20325;-60
2023/10/05 02:04:03;;;;;;;5.40;2.50;;;;;;;9.48;71.88;99376.34;5055311;28;20452;-61
2023/10/05 02:06:28;;;;;;;4.82;2.03;;;;;;;9.45;71.94;99370.41;5054931;28;20036;-61
2023/10/05 02:08:54;;;;;;;7.00;2.42;;;;;;;9.53;72.16;99378.63;5055404;28;20025;-60
2023/10/05 02:11:24;;;;;;;5.72;2.40;;;;;;;9.59;72.14;99378.13;5055099;28;20158;-61
2023/10/05 02:13:57;;;;;;;5.35;2.10;;;;;;;9.78;72.03;99381.91;5055152;28;20029;-62
2023/10/05 02:16:24;;;;;;;10.32;2.20;;;;;;;9.84;71.73;99380.56;5053271;28;20064;-60
2023/10/05 02:18:50;;;;;;;7.95;2.45;;;;;;;9.93;71.17;99368.25;5054932;28;20075;-61
2023/10/05 02:24:12;;;;;;;5.22;2.38;;;;;;;10.02;70.74;99362.94;5054608;28;20426;-60
2023/10/05 02:27:09;;;;;;;5.93;2.00;;;;;;;10.09;70.61;99370.44;5036092;28;20098;-59
2023/10/05 02:29:31;;;;;;;5.35;2.40;;;;;;;9.80;70.42;99331.84;5034854;28;20116;-60
2023/10/05 02:32:05;;;;;;;6.22;1.95;;;;;;;9.99;70.85;99368.53;5017929;28;20467;-60
2023/10/05 02:34:42;;;;;;;5.45;1.70;;;;;;;9.98;70.80;99366.00;5034480;28;20033;-59
2023/10/05 02:37:11;;;;;;;4.93;1.90;;;;;;;9.89;71.08;99363.16;5034900;28;20322;-60
2023/10/05 02:39:41;;;;;;;2.65;1.85;;;;;;;9.87;71.45;99374.94;5035465;28;20024;-59
2023/10/05 02:42:12;;;;;;;5.97;2.00;;;;;;;9.74;71.52;99370.63;5034544;28;20120;-60
2023/10/05 02:44:38;;;;;;;5.20;1.65;;;;;;;9.68;72.11;99367.66;5034188;28;20719;-60
2023/10/05 02:47:08;;;;;;;6.00;1.98;;;;;;;9.61;72.29;99365.47;5034580;28;20120;-60
2023/10/05 02:49:39;;;;;;;7.35;2.25;;;;;;;9.54;72.11;99372.31;5044184;28;20029;-59
2023/10/05 02:52:06;;;;;;;7.85;1.95;;;;;;;9.33;72.35;99334.88;5053775;28;20045;-61
2023/10/05 02:54:32;;;;;;;7.10;1.80;;;;;;;9.29;72.94;99346.81;5053910;28;20032;-60
2023/10/05 02:56:57;;;;;;;6.03;2.00;;;;;;;9.40;72.75;99377.94;5054428;28;20037;-62
2023/10/05 02:59:26;;;;;;;4.97;1.90;;;;;;;9.40;73.33;99370.78;5054614;28;20082;-60
2023/10/05 03:01:54;;;;;;;3.90;1.70;;;;;;;9.34;73.38;99374.00;5054139;28;20040;-61
2023/10/05 03:04:22;;;;;;;3.97;1.63;;;;;;;9.27;73.37;99378.97;5053157;28;20025;-61
2023/10/05 03:06:49;;;;;;;4.53;1.83;;;;;;;9.21;73.98;99367.94;5053992;28;20250;-57
2023/10/05 03:09:14;;;;;;;4.38;1.90;;;;;;;8.99;73.76;99341.19;5054177;28;20032;-61
2023/10/05 03:11:46;;;;;;;4.72;1.92;;;;;;;9.19;74.03;99373.44;5053092;28;20048;-58
2023/10/05 03:14:16;;;;;;;4.85;1.73;;;;;;;9.10;74.04;99376.84;5051845;28;20123;-61
2023/10/05 03:16:47;;;;;;;6.47;2.03;;;;;;;9.11;74.17;99378.53;5053941;28;20040;-57
2023/10/05 03:19:21;;;;;;;6.75;1.98;;;;;;;9.12;74.47;99390.91;5037211;28;20520;-60
2023/10/05 03:21:52;;;;;;;4.25;2.03;;;;;;;9.14;74.46;99384.47;5053476;28;20072;-60
2023/10/05 03:24:19;;;;;;;5.35;1.75;;;;;;;9.11;74.73;99383.88;5053489;28;20052;-59
2023/10/05 03:26:47;;;;;;;5.03;1.75;;;;;;;9.11;74.86;99383.88;5053439;28;20036;-59
2023/10/05 03:29:12;;;;;;;6.22;1.70;;;;;;;9.09;74.97;99383.16;5036890;28;20356;-59
2023/10/05 03:31:55;;;;;;;4.72;1.90;;;;;;;9.12;75.05;99385.56;5033638;28;20029;-58
2023/10/05 03:34:26;;;;;;;8.88;1.90;;;;;;;9.13;75.22;99392.59;5032677;28;20033;-60
2023/10/05 03:36:55;;;;;;;6.25;1.77;;;;;;;9.17;75.13;99381.56;5033603;28;20091;-60
2023/10/05 03:39:23;;;;;;;9.15;2.30;;;;;;;9.19;74.79;99381.44;5033411;28;20037;-61
2023/10/05 03:41:49;;;;;;;5.15;2.17;;;;;;;9.20;74.96;99380.47;5033197;28;20098;-61
2023/10/05 03:44:18;;;;;;;5.28;2.22;;;;;;;9.25;74.40;99386.28;5047802;28;20424;-59
2023/10/05 03:46:47;;;;;;;6.78;2.30;;;;;;;9.22;74.64;99375.84;5052389;28;20033;-62
2023/10/05 03:49:18;;;;;;;9.80;2.20;;;;;;;9.33;74.57;99386.47;5053163;28;20032;-60
2023/10/05 03:51:49;;;;;;;7.35;2.03;;;;;;;9.32;74.06;99389.28;5049510;28;20025;-58
2023/10/05 03:54:19;;;;;;;5.00;2.33;;;;;;;9.39;74.43;99384.25;5033278;28;20033;-59
2023/10/05 03:56:45;;;;;;;4.30;2.20;;;;;;;9.22;74.06;99349.13;5033231;28;20432;-60
2023/10/05 03:59:12;;;;;;;6.45;2.40;;;;;;;9.51;74.13;99388.59;5033234;28;20044;-57
2023/10/05 04:01:37;;;;;;;7.30;2.60;;;;;;;9.56;73.45;99383.72;5032902;28;20110;-61
2023/10/05 04:04:07;;;;;;;5.85;2.40;;;;;;;9.61;73.53;99376.16;5032103;28;20033;-61
2023/10/05 04:06:32;;;;;;;6.35;2.40;;;;;;;9.70;73.23;99384.41;5033006;28;20059;-61
2023/10/05 04:08:58;;;;;;;4.95;2.80;;;;;;;9.75;72.81;99382.19;5033119;28;20156;-59
2023/10/05 04:11:26;;;;;;;6.43;3.08;;;;;;;9.87;72.48;99391.81;5032883;28;20029;-61
2023/10/05 04:13:55;;;;;;;4.80;2.40;;;;;;;9.98;72.51;99387.41;5033119;28;20808;-60
2023/10/05 04:16:28;;;;;;;7.40;3.00;;;;;;;10.15;72.15;99384.13;5032997;28;20041;-60
2023/10/05 04:18:58;;;;;;;6.93;2.70;;;;;;;10.28;70.98;99383.06;5033762;28;20080;-62
2023/10/05 04:21:25;;;;;;;9.40;3.22;;;;;;;10.33;70.77;99370.13;5032575;28;20042;-61
2023/10/05 04:23:52;;;;;;;6.22;3.08;;;;;;;10.47;70.17;99388.53;5032824;28;20029;-62
2023/10/05 04:26:21;;;;;;;7.72;2.95;;;;;;;10.58;70.07;99386.75;5032633;28;20043;-61
2023/10/05 04:28:52;;;;;;;6.97;3.08;;;;;;;10.70;69.53;99385.69;5032873;28;20051;-62
2023/10/05 04:31:27;;;;;;;9.85;2.92;;;;;;;10.91;69.33;99379.41;5032714;28;20539;-62
2023/10/05 04:33:57;;;;;;;8.43;3.30;;;;;;;11.05;68.27;99383.53;5041749;28;20039;-62
2023/10/05 04:36:25;;;;;;;9.73;3.60;;;;;;;11.36;67.74;99393.31;5041742;28;20078;-63
2023/10/05 04:38:54;;;;;;;8.75;3.65;;;;;;;11.65;66.72;99387.09;5041614;28;20455;-63
2023/10/05 04:41:31;;;;;;;13.23;3.53;;;;;;;11.89;65.86;99389.31;5043541;28;20095;-61
2023/10/05 04:43:57;;;;;;;5.40;3.40;;;;;;;11.90;65.27;99378.47;5035029;28;20120;-61
2023/10/05 04:46:28;;;;;;;10.23;3.33;;;;;;;11.99;64.86;99379.44;5031649;28;20057;-60
2023/10/05 04:48:55;;;;;;;5.38;3.08;;;;;;;12.16;64.51;99380.56;5041548;28;20033;-62
2023/10/05 04:51:30;;;;;;;8.10;3.42;;;;;;;12.50;64.01;99381.88;5052160;28;20071;-60
2023/10/05 04:53:59;;;;;;;6.90;2.88;;;;;;;13.55;61.03;99384.25;5050098;28;20155;-62
2023/10/05 04:56:47;;;;;;;7.03;3.10;;;;;;;14.28;57.97;99373.34;5042852;28;20091;-62
2023/10/05 05:07:07;;;;;;;6.38;2.53;;;;;;;13.83;58.82;99405.66;5051484;28;20101;-61
2023/10/05 05:09:34;;;;;;;6.30;2.50;;;;;;;13.59;59.50;99409.81;5039120;28;20056;-62
2023/10/05 05:12:04;;;;;;;10.15;2.60;;;;;;;13.47;60.07;99408.34;5052115;28;20041;-60
2023/10/05 05:14:35;;;;;;;9.82;2.95;;;;;;;13.40;60.22;99407.25;5039586;28;20057;-63
2023/10/05 05:17:02;;;;;;;6.03;2.65;;;;;;;13.35;60.41;99419.31;5044546;28;20043;-62
2023/10/05 05:19:37;;;;;;;8.90;2.28;;;;;;;13.45;60.06;99419.28;5039772;28;20037;-62
2023/10/05 05:22:05;;;;;;;8.88;3.35;;;;;;;13.55;59.47;99418.34;5040283;28;20032;-62
2023/10/05 05:24:34;;;;;;;7.63;2.28;;;;;;;13.56;59.90;99410.13;5056430;28;20052;-62
2023/10/05 05:27:00;;;;;;;8.02;2.80;;;;;;;13.53;59.59;99402.38;5055243;28;20021;-61
2023/10/05 05:29:33;;;;;;;8.55;2.45;;;;;;;13.66;59.53;99409.22;5054740;28;20220;-63
2023/10/05 05:32:10;;;;;;;7.78;3.28;;;;;;;13.79;59.29;99415.06;5055618;28;20364;-61
2023/10/05 05:34:36;;;;;;;6.25;2.97;;;;;;;13.80;58.71;99413.19;5048655;28;20026;-62
2023/10/05 05:37:02;;;;;;;6.88;3.40;;;;;;;13.87;58.85;99412.41;5036190;28;20037;-62
2023/10/05 05:39:31;;;;;;;6.10;2.40;;;;;;;14.12;58.12;99419.84;5035709;28;20038;-61
2023/10/05 05:41:59;;;;;;;6.72;2.70;;;;;;;14.55;56.80;99418.09;5035609;28;20255;-62
2023/10/05 05:44:26;;;;;;;8.68;3.17;;;;;;;15.23;54.98;99409.31;5035508;28;20115;-61
2023/10/05 05:46:55;;;;;;;7.80;2.65;;;;;;;15.97;53.01;99414.81;5035879;28;20052;-61
2023/10/05 05:49:23;;;;;;;4.90;2.53;;;;;;;16.19;52.19;99418.72;5038718;28;20459;-61
2023/10/05 05:51:49;;;;;;;6.78;3.03;;;;;;;15.84;52.21;99371.28;5045893;28;20033;-62
2023/10/05 05:54:14;;;;;;;7.63;2.78;;;;;;;15.90;52.79;99411.94;5048057;28;20359;-62
2023/10/05 05:56:42;;;;;;;7.35;3.35;;;;;;;15.70;53.51;99411.41;5051925;28;20052;-62
2023/10/05 05:59:08;;;;;;;7.45;3.15;;;;;;;15.40;54.28;99413.75;5045253;28;20503;-63
2023/10/05 06:01:37;;;;;;;6.55;3.10;;;;;;;15.04;54.62;99387.88;5035579;28;20187;-62
2023/10/05 06:04:03;;;;;;;5.72;2.90;;;;;;;15.01;55.42;99415.16;5029539;28;20052;-61
2023/10/05 06:06:29;;;;;;;7.72;3.33;;;;;;;14.90;55.51;99424.38;5052087;28;20040;-62
2023/10/05 06:08:56;;;;;;;12.32;3.95;;;;;;;14.81;56.05;99413.72;5040882;28;20025;-61
2023/10/05 06:11:22;;;;;;;8.60;3.00;;;;;;;14.74;56.28;99414.38;5021421;28;20041;-62
2023/10/05 06:13:49;;;;;;;6.28;2.53;;;;;;;14.60;56.64;99405.00;5036816;28;20084;-62
2023/10/05 06:16:15;;;;;;;7.45;2.53;;;;;;;14.68;56.56;99417.66;5035610;28;20056;-62
2023/10/05 06:18:41;;;;;;;7.28;2.90;;;;;;;14.76;55.92;99406.97;5036104;28;20047;-62
2023/10/05 06:21:06;;;;;;;9.80;3.20;;;;;;;15.02;55.78;99414.16;5046445;28;20044;-61
2023/10/05 06:23:34;;;;;;;8.60;3.00;;;;;;;15.18;55.41;99416.03;5034722;28;20415;-62
2023/10/05 06:26:00;;;;;;;12.88;2.75;;;;;;;15.38;54.79;99415.75;5042421;28;20287;-62
2023/10/05 06:28:27;;;;;;;9.13;2.78;;;;;;;15.57;54.17;99425.41;5053128;28;20068;-61
2023/10/05 06:30:53;;;;;;;7.30;2.40;;;;;;;15.64;53.72;99428.28;5054493;28;20352;-61
2023/10/05 06:33:19;;;;;;;6.43;2.95;;;;;;;15.68;53.46;99431.50;5054156;28;20032;-61
2023/10/05 06:35:48;;;;;;;8.27;2.70;;;;;;;15.79;53.60;99431.16;5047403;28;20107;-60
2023/10/05 06:38:16;;;;;;;9.95;2.65;;;;;;;15.31;53.44;99348.16;5038860;28;20036;-61
2023/10/05 06:40:42;;;;;;;6.93;3.00;;;;;;;15.93;52.76;99435.94;5049138;28;20118;-62
2023/10/05 06:43:07;;;;;;;7.85;2.83;;;;;;;15.88;52.76;99415.81;5034475;28;20025;-61
2023/10/05 06:45:35;;;;;;;11.43;3.05;;;;;;;15.92;52.66;99426.16;5033977;28;20041;-62
2023/10/05 06:48:03;;;;;;;6.82;2.60;;;;;;;15.86;53.08;99426.78;5035285;28;20037;-61
2023/10/05 06:50:29;;;;;;;8.05;3.08;;;;;;;15.86;53.02;99413.28;5047688;28;20037;-63
2023/10/05 06:52:55;;;;;;;6.15;2.80;;;;;;;16.40;52.35;99414.63;5046887;28;20040;-63
2023/10/05 06:55:24;;;;;;;6.90;2.65;;;;;;;19.00;46.30;99420.59;5035350;28;20076;-63
2023/10/05 06:57:50;;;;;;;6.70;2.70;;;;;;;23.13;37.74;99414.09;5047754;28;20021;-67
2023/10/05 07:00:21;;;;;;;8.07;2.75;;;;;;;25.24;33.61;99422.06;5044841;28;20037;-62
2023/10/05 07:02:53;;;;;;;11.02;3.30;;;;;;;25.63;32.82;99424.50;5041025;28;20166;-62
2023/10/05 07:05:20;;;;;;;9.20;3.08;;;;;;;24.30;33.96;99423.91;5036378;28;20045;-62
2023/10/05 07:07:45;;;;;;;7.85;2.97;;;;;;;22.63;36.52;99400.00;5047945;28;20024;-63
2023/10/05 07:10:14;;;;;;;9.90;3.35;;;;;;;21.35;39.00;99438.03;5054102;28;20052;-63
2023/10/05 07:12:47;;;;;;;9.10;3.58;;;;;;;20.00;41.70;99436.34;5052709;28;20039;-62
2023/10/05 07:15:14;;;;;;;8.93;3.47;;;;;;;19.12;43.58;99436.41;5044971;28;20057;-63
2023/10/05 07:17:40;;;;;;;9.18;3.10;;;;;;;18.57;44.51;99433.97;5050683;28;20047;-62
2023/10/05 07:20:13;;;;;;;8.57;2.70;;;;;;;18.09;45.57;99437.81;5052582;28;20059;-61
2023/10/05 07:22:42;;;;;;;12.35;3.10;;;;;;;17.87;46.45;99437.63;5049430;28;20479;-62
2023/10/05 07:25:10;;;;;;;13.40;3.42;;;;;;;17.53;46.70;99413.66;5040806;28;20028;-62
2023/10/05 07:27:37;;;;;;;8.80;3.00;;;;;;;17.47;47.35;99447.69;5052857;28;20086;-61
2023/10/05 07:30:06;;;;;;;6.55;2.85;;;;;;;17.18;48.04;99443.78;5052999;28;20120;-61
2023/10/05 07:32:35;;;;;;;7.45;3.15;;;;;;;16.79;48.91;99445.44;5053029;28;20035;-61
2023/10/05 07:35:02;;;;;;;7.55;3.03;;;;;;;16.46;49.66;99443.66;5051225;28;20220;-63
2023/10/05 07:37:30;;;;;;;9.18;3.22;;;;;;;16.33;50.26;99436.06;5052997;28;20043;-63
2023/10/05 07:39:55;;;;;;;11.25;3.22;;;;;;;16.15;50.73;99443.53;5050069;28;20037;-61
2023/10/05 07:42:22;;;;;;;9.68;3.28;;;;;;;16.00;50.87;99435.25;5043029;28;20112;-62
2023/10/05 07:44:47;;;;;;;8.52;2.85;;;;;;;15.98;51.03;99439.97;5051661;28;20167;-62
2023/10/05 07:47:13;;;;;;;9.68;3.47;;;;;;;16.01;50.75;99447.75;5044760;28;20073;-61
2023/10/05 07:49:41;;;;;;;7.38;2.70;;;;;;;16.07;50.58;99442.50;5035872;28;20344;-59
2023/10/05 07:52:11;;;;;;;8.30;3.13;;;;;;;16.16;50.46;99442.50;5051790;28;20036;-59
2023/10/05 07:54:38;;;;;;;9.90;3.30;;;;;;;16.28;50.03;99449.25;5052506;28;20069;-63
2023/10/05 07:57:07;;;;;;;10.88;2.90;;;;;;;16.46;49.41;99451.75;5042348;28;20036;-60
2023/10/05 07:59:33;;;;;;;13.35;2.92;;;;;;;16.59;49.15;99444.97;5034046;28;20380;-60
2023/10/05 08:01:58;;;;;;;8.73;3.15;;;;;;;16.54;49.30;99433.84;5032720;28;20106;-60
2023/10/05 08:04:24;;;;;;;6.97;2.88;;;;;;;16.56;49.02;99445.31;5039235;28;20102;-62
2023/10/05 08:06:50;;;;;;;9.32;3.20;;;;;;;16.59;49.33;99450.38;5046611;28;20111;-61
2023/10/05 08:09:20;;;;;;;7.63;2.95;;;;;;;16.58;49.26;99445.97;5042539;28;20033;-61
2023/10/05 08:11:50;;;;;;;10.55;2.83;;;;;;;16.53;49.13;99437.56;5039746;28;20113;-62
2023/10/05 08:14:17;;;;;;;7.32;2.67;;;;;;;16.49;49.36;99443.31;5041909;28;20045;-62
2023/10/05 08:16:45;;;;;;;8.80;2.85;;;;;;;16.30;49.82;99444.53;5040698;28;20076;-61
2023/10/05 08:19:11;;;;;;;8.23;3.08;;;;;;;16.23;50.18;99445.38;5041987;28;20048;-62
2023/10/05 08:21:36;;;;;;;7.93;2.88;;;;;;;16.18;50.00;99441.34;5043530;28;20040;-61
2023/10/05 08:24:02;;;;;;;10.10;3.20;;;;;;;15.94;50.44;99390.88;5051754;28;20075;-62
2023/10/05 08:26:29;;;;;;;8.90;3.10;;;;;;;16.25;50.04;99446.03;5038005;28;20029;-61
2023/10/05 08:28:57;;;;;;;8.77;3.42;;;;;;;16.26;50.27;99439.63;5040031;28;20025;-60
2023/10/05 08:31:24;;;;;;;8.60;3.08;;;;;;;16.35;49.93;99441.28;5039212;28;20056;-61
2023/10/05 08:33:53;;;;;;;9.52;2.95;;;;;;;16.46;49.42;99443.66;5037977;28;20091;-61
2023/10/05 08:36:18;;;;;;;6.63;2.72;;;;;;;16.52;49.01;99442.13;5016186;28;20041;-63
2023/10/05 08:38:47;;;;;;;8.88;3.00;;;;;;;16.41;49.36;99443.34;5041419;28;20036;-63
2023/10/05 08:41:41;;;;;;;11.20;3.05;;;;;;;16.54;49.77;99447.34;5039455;28;20029;-63
2023/10/05 08:44:27;;;;;;;9.55;3.20;;;;;;;16.48;49.20;99449.72;5045674;28;20131;-63
2023/10/05 08:46:55;;;;;;;6.82;2.80;;;;;;;16.63;48.76;99440.91;5051448;28;20040;-62
2023/10/05 08:49:23;;;;;;;9.77;4.07;;;;;;;16.72;48.82;99450.69;5045200;28;20102;-61
2023/10/05 08:51:49;;;;;;;10.00;3.53;;;;;;;16.55;49.60;99449.88;5048793;28;20032;-63
2023/10/05 08:54:15;;;;;;;11.57;3.35;;;;;;;16.31;50.44;99454.31;5038467;28;20480;-64
2023/10/05 08:56:45;;;;;;;9.45;3.10;;;;;;;16.09;51.80;99461.22;5056549;28;20108;-62
2023/10/05 08:59:19;;;;;;;9.20;3.30;;;;;;;15.90;53.61;99457.00;5047494;28;20036;-63
2023/10/05 09:01:52;;;;;;;8.73;3.22;;;;;;;15.78;54.11;99448.38;5055623;28;20333;-63
2023/10/05 09:06:59;;;;;;;10.40;3.45;;;;;;;15.74;55.91;99457.81;5054278;28;20033;-64
2023/10/05 09:09:30;;;;;;;9.65;3.38;;;;;;;15.70;55.11;99445.66;5046083;28;20180;-65
2023/10/05 09:11:56;;;;;;;9.55;3.67;;;;;;;15.68;55.13;99453.09;5044003;28;20480;-62
2023/10/05 09:14:28;;;;;;;6.22;3.40;;;;;;;15.74;55.79;99447.03;5040577;28;20064;-63
2023/10/05 09:17:05;;;;;;;8.57;3.17;;;;;;;15.86;55.14;99447.53;5035478;28;20037;-62
2023/10/05 09:19:33;;;;;;;7.82;3.45;;;;;;;15.69;54.98;99442.13;5035560;28;20049;-62
2023/10/05 09:24:29;;;;;;;8.75;3.28;;;;;;;15.34;55.79;99447.59;5045338;28;20463;-63
2023/10/05 09:26:57;;;;;;;9.90;3.30;;;;;;;15.20;56.95;99462.56;5053738;28;20107;-62
2023/10/05 09:29:29;;;;;;;9.98;3.80;;;;;;;15.11;57.94;99468.09;5054496;28;20043;-62
2023/10/05 09:31:56;;;;;;;8.32;3.67;;;;;;;14.95;57.78;99460.78;5044330;28;20088;-61
2023/10/05 09:34:49;;;;;;;8.90;3.85;;;;;;;14.85;59.15;99460.91;5033317;28;20393;-60
2023/10/05 09:37:16;;;;;;;7.85;3.28;;;;;;;14.54;60.37;99470.28;5034961;28;20103;-63
2023/10/05 09:39:44;;;;;;;9.82;3.75;;;;;;;14.35;61.61;99464.13;5034649;28;20103;-62
2023/10/05 09:42:17;;;;;;;8.98;3.90;;;;;;;14.31;61.61;99467.28;5034856;28;20425;-61
2023/10/05 09:44:51;;;;;;;12.48;3.40;;;;;;;14.11;61.99;99462.06;5047248;28;20029;-62
2023/10/05 09:47:20;;;;;;;6.10;2.47;;;;;;;13.88;62.14;99465.25;5054695;28;20075;-62
2023/10/05 09:49:46;;;;;;;6.57;2.53;;;;;;;13.75;62.61;99465.63;5054271;28;20064;-62
2023/10/05 09:52:13;;;;;;;6.15;2.72;;;;;;;13.66;62.79;99457.63;5043769;28;20022;-62
2023/10/05 09:54:40;;;;;;;7.95;2.70;;;;;;;13.71;63.41;99458.88;5035220;28;20112;-62
2023/10/05 09:57:11;;;;;;;6.20;2.60;;;;;;;13.66;63.85;99428.03;5053550;28;20044;-64
2023/10/05 09:59:44;;;;;;;7.10;2.58;;;;;;;13.89;63.36;99458.84;5041422;28;20028;-61
2023/10/05 10:02:14;;;;;;;5.25;2.78;;;;;;;13.85;63.38;99457.47;5037521;28;20102;-63
2023/10/05 10:04:41;;;;;;;6.68;2.65;;;;;;;13.92;63.07;99458.53;5044904;28;20034;-62
2023/10/05 10:07:22;;;;;;;6.07;2.67;;;;;;;13.91;63.11;99467.63;5034398;28;20037;-64
2023/10/05 10:09:53;;;;;;;9.60;3.03;;;;;;;13.83;63.57;99442.47;5033851;28;20030;-62
2023/10/05 10:12:38;;;;;;;7.22;3.67;;;;;;;13.84;63.44;99455.78;5033876;28;20048;-62
2023/10/05 10:15:24;;;;;;;6.65;3.00;;;;;;;13.63;64.23;99421.97;5044753;28;20057;-61
2023/10/05 10:18:03;;;;;;;8.48;3.17;;;;;;;13.97;64.94;99460.78;5053694;28;20040;-62
2023/10/05 10:20:35;;;;;;;10.27;3.97;;;;;;;14.12;63.98;99430.63;5054577;28;20120;-63
2023/10/05 10:23:34;;;;;;;11.20;4.45;;;;;;;14.70;62.96;99442.59;5054143;28;20112;-62
2023/10/05 10:26:17;;;;;;;7.68;3.67;;;;;;;15.05;62.73;99453.41;5053195;28;20116;-62
2023/10/05 10:31:30;;;;;;;7.90;4.18;;;;;;;15.38;61.06;99458.91;5052715;28;20043;-62
2023/10/05 10:34:42;;;;;;;7.85;3.55;;;;;;;15.38;60.53;99452.66;5053011;28;20099;-61
2023/10/05 10:37:09;;;;;;;7.70;3.58;;;;;;;15.03;59.66;99453.56;5052701;28;20454;-62
2023/10/05 10:39:37;;;;;;;7.78;2.95;;;;;;;14.82;61.18;99455.84;5052334;28;20044;-62
2023/10/05 10:42:04;;;;;;;7.63;3.13;;;;;;;14.71;61.58;99463.19;5053394;28;20459;-62
2023/10/05 10:44:56;;;;;;;8.45;3.05;;;;;;;14.70;61.74;99444.44;5053330;28;20448;-61
2023/10/05 10:47:22;;;;;;;8.00;2.85;;;;;;;14.68;61.99;99420.34;5053290;28;20110;-62
2023/10/05 10:50:15;;;;;;;12.00;3.42;;;;;;;15.18;61.34;99451.09;5054229;28;20033;-61
2023/10/05 10:52:43;;;;;;;7.38;2.80;;;;;;;15.38;60.35;99458.06;5039767;28;20412;-63
2023/10/05 10:55:14;;;;;;;9.85;3.40;;;;;;;15.65;59.79;99447.00;5030772;28;20037;-64
2023/10/05 10:57:46;;;;;;;10.30;4.53;;;;;;;16.07;59.65;99457.84;5032469;28;20036;-61
2023/10/05 11:02:56;;;;;;;8.55;3.17;;;;;;;16.61;57.16;99453.75;5051715;28;20076;-61
2023/10/05 11:05:39;;;;;;;8.07;3.35;;;;;;;17.03;56.61;99441.81;5037693;28;20064;-63
2023/10/05 11:08:10;;;;;;;9.18;3.80;;;;;;;17.13;54.73;99443.50;5042348;28;20451;-62
2023/10/05 11:10:36;;;;;;;8.05;2.60;;;;;;;16.94;52.14;99442.84;5041970;28;20029;-63
2023/10/05 11:13:15;;;;;;;4.20;2.30;;;;;;;16.77;52.69;99442.06;5042819;28;20433;-61
2023/10/05 11:15:49;;;;;;;6.38;2.78;;;;;;;16.67;53.86;99447.66;5042434;28;20046;-64
2023/10/05 11:18:18;;;;;;;6.53;3.00;;;;;;;16.46;53.47;99445.50;5041319;28;20126;-62
2023/10/05 11:20:52;;;;;;;8.55;2.83;;;;;;;16.23;53.49;99450.78;5033170;28;20029;-63
2023/10/05 11:23:27;;;;;;;9.20;3.00;;;;;;;16.16;53.76;99456.88;5033000;28;20053;-62
2023/10/05 11:26:17;;;;;;;4.47;2.50;;;;;;;16.02;53.13;99457.53;5033495;28;20055;-62
2023/10/05 11:28:39;;;;;;;4.95;2.75;;;;;;;15.82;53.82;99452.41;5044001;28;20051;-64
2023/10/05 11:31:04;;;;;;;7.53;3.13;;;;;;;15.41;54.80;99415.44;5052326;28;20423;-64
2023/10/05 11:33:37;;;;;;;5.40;2.65;;;;;;;15.47;54.65;99451.69;5053180;28;20033;-64
2023/10/05 11:36:17;;;;;;;9.35;3.10;;;;;;;15.10;55.49;99416.03;5052125;28;20086;-62
2023/10/05 11:38:43;;;;;;;4.80;2.10;;;;;;;14.93;54.69;99421.34;5037319;28;20456;-61
2023/10/05 11:41:09;;;;;;;4.97;2.20;;;;;;;15.02;55.06;99449.19;5047121;28;20043;-62
2023/10/05 11:43:35;;;;;;;4.30;1.90;;;;;;;14.82;55.18;99418.94;5048676;28;20029;-64
2023/10/05 11:48:48;;;;;;;3.75;2.15;;;;;;;15.12;55.41;99448.19;5038511;28;20025;-63
2023/10/05 11:51:26;;;;;;;4.93;1.70;;;;;;;15.13;56.24;99447.19;5041387;28;20124;-63
2023/10/05 11:53:55;;;;;;;6.47;2.38;;;;;;;15.02;55.67;99435.72;5046613;28;20044;-62
2023/10/05 11:56:30;;;;;;;5.50;2.03;;;;;;;14.99;56.25;99438.75;5035602;28;20371;-57
2023/10/05 11:58:59;;;;;;;4.10;1.85;;;;;;;14.88;56.29;99433.63;5037951;28;20041;-61
2023/10/05 12:01:25;;;;;;;5.35;1.98;;;;;;;14.82;56.94;99431.56;5037619;28;20411;-61
2023/10/05 12:03:51;;;;;;;5.72;1.88;;;;;;;14.79;56.12;99438.13;5037405;28;20048;-62
2023/10/05 12:06:23;;;;;;;3.90;1.80;;;;;;;14.73;56.41;99433.38;5050010;28;20366;-64
2023/10/05 12:08:53;;;;;;;4.32;2.10;;;;;;;14.69;56.43;99432.81;5052038;28;20124;-60
2023/10/05 12:11:23;;;;;;;9.35;2.50;;;;;;;14.65;57.45;99420.66;5037877;28;20052;-62
2023/10/05 12:13:56;;;;;;;6.75;2.60;;;;;;;14.48;57.74;99392.81;5042333;28;20102;-62
2023/10/05 12:16:24;;;;;;;7.75;2.97;;;;;;;14.50;57.81;99401.56;5051846;28;20051;-62
2023/10/05 12:18:51;;;;;;;7.28;2.60;;;;;;;14.72;57.96;99416.38;5052456;28;20037;-60
2023/10/05 12:21:18;;;;;;;7.63;2.40;;;;;;;14.82;56.99;99410.84;5050676;28;20047;-62